Aérodrome :
LOGIN :

S'inscrire | Disclaimer

   EN    FR    IT 

 










Légende :    VFR   VFR Marginal   IFR   IFR Intensif   IFR Très Intensif
Visi : 
Plafond : 
>= 8 km
>= 3000ft
5 à 8 km
1000 à 3000 ft
1500m à 5 km
500 à 1000 ft
800 à 1500m
200 à 500 ft
< 800m
< 200 ft
Symboles :   Orages  Brouillard  Fortes neiges  Fortes précipitations  Vent > 20 kt
SIGMETs :   Divers  Orages  Givrage  Turbulence  Onde Orograph.  Cendres Volcan.







- Altitude de l'aérodrome : 1906 ft
- Code IATA : INN


LOWI - Innsbruck

DERNIER METAR :
  • 240820Z 12003KT 050V210 9999 FEW050 BKN300 17/09 Q1021 NOSIG

METARs EXPIRÉS :
  • 240750Z VRB03KT 9999 SCT030 BKN300 16/09 Q1021 NOSIG
  • 240720Z 11004KT 040V140 9999 SCT030 SCT080 14/09 Q1022 NOSIG
  • 240650Z 07003KT 020V170 9999 SCT030 BKN078 14/09 Q1022 NOSIG
  • 240620Z 06004KT 010V130 9999 SCT030 BKN080 13/09 Q1022 NOSIG
  • 240550Z 08003KT 030V130 9999 FEW010 SCT040 BKN085 13/09 Q1022 NOSIG

TAF TAF LOWI
Valide du 24 à 06h jusqu'au 25 à 06h UTC


240515Z 2406/2506 07007KT 9999 FEW050 BKN080 TX20/2414Z TN12/2503Z
PROB40
TEMPO 2411/2414 34012G25KT
TEMPO 2414/2424 31015G25KT SHRA SCT040TCU BKN070
BECMG 2417/2419 30008KT
TEMPO 2500/2506 07007KT -RA
Pas de NOTAMs connus pour ce terrain.



MET'MAP, la Météo Aéronautique d'un coup d'oeil ! - Copyright ORBIFLY Décembre 2007 - Disclaimer

ORBIFLY MET'MAP TEAM :

Programmation & Développement : Alexandra Zaïnal
Conception & Développement : Baudouin d'Aumeries
Co-Programmation & Développement : Marc-Olivier Méhu
Soutien technique & logistique : Manuel Goepfert

Contact : metmap@orbifly.com




SOURCES & CREDITS :

   NOAA